»·PEaware :: DAL213 KEGE-KDEN

DAL213 :: KEGE-KDEN

FLIGHT INFORMATION

Flight Status: Arrived
Operator:
Delta Air Lines
More flights by this operator :: More flights under this callsign
Pilot: Nicolas L. (9332)
Aircraft: BOEING 737-800
(B738)
More flights by this aircraft type
Origin: KEGE Eagle Co Regl
United States
Destination: KDEN Denver Intl
United States
More flights between these airports :: More routes between these airports
Route: GYPSM5 RLG FRNCH FRNCH3
File this flight plan on PilotEdge
Remarks: Live Streaming on Twith "DAL213" and YT
Altitude:
(Current/Filed)
23,000ft
Speed:
(Current/Filed)
400kts
Departed: 13-May-18 07:36 PM
Arrived: 13-May-18 08:09 PM
Distance/Time
Traveled:
104nm/0:33
Distance/Time
To Go:
Arrived

Flight Plot

Page will automatically refresh every two minutes.

Flight plan parsing failed; only flown route is shown


Map Options




Map Legend


Flown Route
Filed Route
Departure Airport
Arrival Airport
Navaid (VOR, NDB)
Fix

Horizontal Profiles

Position Reports

Time Latitude Longitude Heading Altitude Ground
Speed
13-May-18 19:17 39.641895 -106.904266 351 6523ft 0kts
13-May-18 19:18 39.641895 -106.904266 351 6523ft 0kts
13-May-18 19:19 39.641895 -106.904266 351 6523ft 0kts
13-May-18 19:20 39.641895 -106.904266 351 6523ft 0kts
13-May-18 19:21 39.641895 -106.904266 351 6523ft 0kts
13-May-18 19:22 39.641895 -106.904266 351 6523ft 0kts
13-May-18 19:23 39.641895 -106.904266 351 6523ft 0kts
13-May-18 19:24 39.641895 -106.904266 351 6523ft 0kts
13-May-18 19:25 39.641895 -106.904266 351 6523ft 0kts
13-May-18 19:26 39.641895 -106.904266 351 6523ft 0kts
13-May-18 19:27 39.641895 -106.904266 351 6523ft 0kts
13-May-18 19:28 39.641895 -106.904266 351 6523ft 0kts
13-May-18 19:29 39.641895 -106.904266 351 6523ft 0kts
13-May-18 19:30 39.641895 -106.904266 351 6523ft 0kts
13-May-18 19:31 39.641895 -106.904266 351 6523ft 0kts
13-May-18 19:32 39.641895 -106.904266 351 6523ft 0kts
13-May-18 19:33 39.643048 -106.902741 78 6523ft 20kts
13-May-18 19:34 39.643459 -106.900343 45 6523ft 0kts
13-May-18 19:35 39.643461 -106.900340 45 6523ft 0kts
13-May-18 19:36 39.643361 -106.910677 262 6524ft 123kts
13-May-18 19:37 39.622890 -106.964159 227 8303ft 198kts
13-May-18 19:38 39.601156 -107.029423 298 10632ft 237kts
13-May-18 19:39 39.671254 -107.049988 353 12443ft 305kts
13-May-18 19:40 39.755310 -107.068358 25 15183ft 330kts
13-May-18 19:41 39.808044 -106.969764 67 17765ft 345kts
13-May-18 19:42 39.851434 -106.854432 68 20373ft 363kts
13-May-18 19:43 39.896047 -106.733429 69 22814ft 379kts
13-May-18 19:44 39.943164 -106.605175 68 23147ft 409kts
13-May-18 19:45 39.994623 -106.464507 68 23140ft 441kts
13-May-18 19:46 40.082646 -106.355539 31 23140ft 457kts
13-May-18 19:47 40.184802 -106.257428 39 23141ft 454kts
13-May-18 19:48 40.284712 -106.156209 39 23161ft 454kts
13-May-18 19:49 40.383235 -106.053047 48 23173ft 451kts
13-May-18 19:50 40.425487 -105.906389 93 23179ft 428kts
13-May-18 19:51 40.406715 -105.755919 106 23201ft 418kts
13-May-18 19:52 40.383827 -105.605847 106 23170ft 418kts
13-May-18 19:53 40.353978 -105.457803 121 23345ft 421kts
13-May-18 19:54 40.285804 -105.340052 135 22344ft 391kts
13-May-18 19:55 40.224205 -105.231979 135 19748ft 346kts
13-May-18 19:56 40.206698 -105.120499 72 17886ft 350kts
13-May-18 19:57 40.230418 -104.997535 108 16375ft 342kts
13-May-18 19:58 40.184968 -104.898565 137 14474ft 309kts
13-May-18 19:59 40.131914 -104.816875 132 13095ft 274kts
13-May-18 20:00 40.087881 -104.742892 132 11637ft 241kts
13-May-18 20:01 40.047044 -104.675504 131 11171ft 241kts
13-May-18 20:02 40.005983 -104.607781 131 11018ft 237kts
13-May-18 20:03 39.970316 -104.535538 100 10904ft 243kts
13-May-18 20:04 39.959522 -104.451587 122 9322ft 228kts
13-May-18 20:05 39.905460 -104.426704 196 8336ft 218kts
13-May-18 20:06 39.875648 -104.489491 274 7472ft 211kts
13-May-18 20:07 39.876958 -104.555071 270 6450ft 155kts
13-May-18 20:08 39.877242 -104.609112 273 5647ft 147kts
13-May-18 20:09 39.877122 -104.645074 246 5440ft 20kts
13-May-18 20:10 39.875914 -104.650705 270 5439ft 18kts
13-May-18 20:11 39.875980 -104.657274 270 5440ft 17kts
13-May-18 20:12 39.874418 -104.662140 180 5439ft 18kts
13-May-18 20:13 39.865787 -104.662247 181 5440ft 33kts
13-May-18 20:14 39.861116 -104.664508 269 5440ft 19kts
13-May-18 20:15 39.861723 -104.670341 324 5440ft 12kts
13-May-18 20:16 39.862585 -104.670857 2 5440ft 0kts
13-May-18 20:17 39.862585 -104.670857 2 5440ft 0kts
13-May-18 20:18 39.862585 -104.670857 2 5440ft 0kts
13-May-18 20:19 39.862585 -104.670857 2 5440ft 0kts
13-May-18 20:20 39.862585 -104.670857 2 5440ft 0kts
13-May-18 20:21 39.862585 -104.670857 2 5440ft 0kts
13-May-18 20:22 39.862585 -104.670857 2 5440ft 0kts
13-May-18 20:23 39.862585 -104.670857 2 5440ft 0kts

Navigation Log

Ident Type
Flight plan parsing failed, navigation log unavailable